createdAt,value
2019-05-03T00:04:16.507Z,1000.64
2019-05-03T00:09:16.875Z,1000.69
2019-05-03T00:14:17.424Z,1000.72
2019-05-03T00:19:18.528Z,1000.72
2019-05-03T00:24:17.881Z,1000.80
2019-05-03T00:29:16.598Z,1000.77
2019-05-03T00:34:16.399Z,1000.69
2019-05-03T00:39:16.421Z,1000.71
2019-05-03T00:44:16.423Z,1000.66
2019-05-03T00:49:16.406Z,1000.71
2019-05-03T00:54:17.833Z,1000.76
2019-05-03T00:59:16.864Z,1000.84
2019-05-03T01:04:17.454Z,1000.73
2019-05-03T01:09:17.383Z,1000.76
2019-05-03T01:14:16.469Z,1000.73
2019-05-03T01:19:16.486Z,1000.73
2019-05-03T01:24:18.129Z,1000.68
2019-05-03T01:29:14.745Z,1000.68
2019-05-03T01:34:13.583Z,1000.67
2019-05-03T01:39:13.363Z,1000.78
2019-05-03T01:44:12.557Z,1000.78
2019-05-03T01:49:12.316Z,1000.73
2019-05-03T01:54:12.245Z,1000.70
2019-05-03T01:59:12.336Z,1000.76
2019-05-03T02:04:12.138Z,1000.81
2019-05-03T02:09:12.152Z,1000.84
2019-05-03T02:14:12.359Z,1000.92
2019-05-03T02:19:12.664Z,1000.81
2019-05-03T02:24:11.898Z,1000.90
2019-05-03T02:29:12.619Z,1001.00
2019-05-03T02:34:12.541Z,1001.05
2019-05-03T02:39:13.557Z,1001.08
2019-05-03T02:44:15.468Z,1001.17
2019-05-03T02:49:15.223Z,1001.17
2019-05-03T02:54:15.503Z,1001.22
2019-05-03T02:59:11.523Z,1001.22
2019-05-03T03:04:10.887Z,1001.19
2019-05-03T03:09:10.385Z,1001.14
2019-05-03T03:14:11.164Z,1001.19
2019-05-03T03:19:09.782Z,1001.16
2019-05-03T03:24:09.502Z,1001.32
2019-05-03T03:29:09.427Z,1001.32
2019-05-03T03:34:09.412Z,1001.35
2019-05-03T03:39:09.377Z,1001.30
2019-05-03T03:44:08.425Z,1001.40
2019-05-03T03:49:08.520Z,1001.34
2019-05-03T03:54:08.729Z,1001.47
2019-05-03T03:59:07.468Z,1001.41
2019-05-03T04:04:06.789Z,1001.48
2019-05-03T04:09:06.520Z,1001.54
2019-05-03T04:14:06.489Z,1001.56
2019-05-03T04:19:06.548Z,1001.69
2019-05-03T04:24:06.517Z,1001.82
2019-05-03T04:29:05.734Z,1001.89
2019-05-03T04:34:05.208Z,1002.00
2019-05-03T04:39:05.391Z,1002.07
2019-05-03T04:44:02.695Z,1002.12
2019-05-03T04:49:05.763Z,1002.07
2019-05-03T04:54:05.284Z,1002.15
2019-05-03T04:59:01.508Z,1002.24
2019-05-03T05:04:01.417Z,1002.30
2019-05-03T05:09:01.427Z,1002.35
2019-05-03T05:14:01.635Z,1002.40
2019-05-03T05:19:01.897Z,1002.48
2019-05-03T05:24:01.500Z,1002.54
2019-05-03T05:29:01.489Z,1002.54
2019-05-03T05:34:01.419Z,1002.66
2019-05-03T05:39:02.401Z,1002.66
2019-05-03T05:44:02.202Z,1002.66
2019-05-03T05:49:01.433Z,1002.74
2019-05-03T05:54:02.398Z,1002.80
2019-05-03T05:59:04.368Z,1002.86
2019-05-03T06:09:05.092Z,1002.86
2019-05-03T06:14:02.651Z,1002.90
2019-05-03T06:19:02.451Z,1002.96
2019-05-03T06:24:04.479Z,1003.07
2019-05-03T06:29:01.599Z,1002.97
2019-05-03T06:34:01.622Z,1003.01
2019-05-03T06:39:01.427Z,1003.14
2019-05-03T06:44:01.510Z,1003.04
2019-05-03T06:49:05.799Z,1003.02
2019-05-03T06:54:01.445Z,1002.97
2019-05-03T06:59:01.637Z,1003.09
2019-05-03T07:04:00.445Z,1002.99
2019-05-03T07:09:00.898Z,1002.91
2019-05-03T07:14:00.478Z,1003.07
2019-05-03T07:19:00.556Z,1003.06
2019-05-03T07:24:00.414Z,1003.01
2019-05-03T07:28:59.607Z,1003.12
2019-05-03T07:33:59.698Z,1003.03
2019-05-03T07:38:58.485Z,1003.07
2019-05-03T07:43:58.447Z,1002.97
2019-05-03T07:48:58.524Z,1002.99
2019-05-03T07:53:57.730Z,1002.90
2019-05-03T07:59:00.600Z,1002.93
2019-05-03T08:03:58.157Z,1002.96
2019-05-03T08:08:56.529Z,1002.90
2019-05-03T08:13:56.546Z,1003.01
2019-05-03T08:18:56.491Z,1003.01
2019-05-03T08:23:55.841Z,1003.05
2019-05-03T08:28:54.626Z,1003.01
2019-05-03T08:33:55.374Z,1003.07
2019-05-03T08:38:56.401Z,1003.00
2019-05-03T08:43:56.152Z,1002.99
2019-05-03T08:48:56.033Z,1003.10
2019-05-03T08:53:56.511Z,1003.12
2019-05-03T08:58:56.635Z,1003.04
2019-05-03T09:03:56.118Z,1003.10
2019-05-03T09:08:57.234Z,1003.02
2019-05-03T09:13:55.930Z,1002.96
2019-05-03T09:18:54.919Z,1002.83
2019-05-03T09:23:55.308Z,1002.82
2019-05-03T09:28:55.463Z,1002.90
2019-05-03T09:33:54.533Z,1002.86
2019-05-03T09:38:54.700Z,1002.88
2019-05-03T09:43:51.842Z,1002.76
2019-05-03T09:48:50.639Z,1002.74
2019-05-03T09:53:49.752Z,1002.74
2019-05-03T09:58:48.512Z,1002.78
2019-05-03T10:03:47.504Z,1002.72
2019-05-03T10:08:47.769Z,1002.64
2019-05-03T10:13:48.935Z,1002.61
2019-05-03T10:18:47.526Z,1002.63
2019-05-03T10:23:48.466Z,1002.54
2019-05-03T10:28:48.646Z,1002.55
2019-05-03T10:33:48.491Z,1002.60
2019-05-03T10:38:48.701Z,1002.61
2019-05-03T10:43:48.810Z,1002.59
2019-05-03T10:48:48.145Z,1002.61
2019-05-03T10:53:46.922Z,1002.56
2019-05-03T10:58:46.514Z,1002.59
2019-05-03T11:03:47.511Z,1002.56
2019-05-03T11:08:47.507Z,1002.55
2019-05-03T11:13:47.442Z,1002.64
2019-05-03T11:18:48.439Z,1002.67
2019-05-03T11:23:46.548Z,1002.62
2019-05-03T11:28:46.453Z,1002.58
2019-05-03T11:33:45.809Z,1002.56
2019-05-03T11:38:45.597Z,1002.51
2019-05-03T11:43:44.559Z,1002.54
2019-05-03T11:48:45.845Z,1002.51
2019-05-03T11:53:45.517Z,1002.37
2019-05-03T11:58:46.621Z,1002.52
2019-05-03T12:03:46.537Z,1002.41
2019-05-03T12:08:46.522Z,1002.32
2019-05-03T12:13:46.425Z,1002.27
2019-05-03T12:18:53.098Z,1002.16
2019-05-03T12:23:46.747Z,1002.19
2019-05-03T12:28:45.868Z,1002.14
2019-05-03T12:33:46.553Z,1002.05
2019-05-03T12:38:46.093Z,1001.94
2019-05-03T12:43:46.528Z,1001.97
2019-05-03T12:48:45.992Z,1001.99
2019-05-03T12:53:44.889Z,1002.06
2019-05-03T12:58:45.720Z,1001.94
2019-05-03T13:03:46.987Z,1002.04
2019-05-03T13:08:45.647Z,1002.03
2019-05-03T13:13:42.553Z,1001.94
2019-05-03T13:18:41.725Z,1001.92
2019-05-03T13:23:41.074Z,1001.92
2019-05-03T13:28:39.961Z,1001.84
2019-05-03T13:38:37.698Z,1001.74
2019-05-03T13:43:38.575Z,1001.70
2019-05-03T13:48:44.852Z,1001.67
2019-05-03T13:53:37.592Z,1001.65
2019-05-03T13:58:36.998Z,1001.69
2019-05-03T14:03:36.715Z,1001.59
2019-05-03T14:08:36.474Z,1001.56
2019-05-03T14:13:36.479Z,1001.52
2019-05-03T14:18:36.612Z,1001.49
2019-05-03T14:23:36.413Z,1001.42
2019-05-03T14:28:37.142Z,1001.27
2019-05-03T14:33:36.463Z,1001.35
2019-05-03T14:38:35.492Z,1001.26
2019-05-03T14:43:35.625Z,1001.36
2019-05-03T14:48:35.511Z,1001.29
2019-05-03T14:53:34.846Z,1001.31
2019-05-03T14:58:46.454Z,1001.25
2019-05-03T15:03:35.097Z,1001.23
2019-05-03T15:08:32.489Z,1001.24
2019-05-03T15:13:32.459Z,1001.09
2019-05-03T15:18:31.485Z,1001.11
2019-05-03T15:23:31.437Z,1001.22
2019-05-03T15:28:31.460Z,1001.13
2019-05-03T15:33:31.559Z,1001.05
2019-05-03T15:38:31.398Z,1001.07
2019-05-03T15:43:31.485Z,1001.05
2019-05-03T15:48:30.447Z,1001.09
2019-05-03T15:53:30.799Z,1001.09
2019-05-03T15:58:30.460Z,1001.08
2019-05-03T16:03:31.482Z,1001.13
2019-05-03T16:08:32.709Z,1001.00
2019-05-03T16:13:32.493Z,1001.08
2019-05-03T16:18:32.477Z,1001.00
2019-05-03T16:23:31.507Z,1000.91
2019-05-03T16:33:30.554Z,1000.99
2019-05-03T16:38:30.485Z,1000.98
2019-05-03T16:43:29.860Z,1000.98
2019-05-03T16:48:30.476Z,1001.02
2019-05-03T16:53:31.543Z,1000.93
2019-05-03T16:58:30.485Z,1000.92
2019-05-03T17:03:38.542Z,1000.80
2019-05-03T17:08:30.454Z,1000.83
2019-05-03T17:13:29.645Z,1000.83
2019-05-03T17:23:29.430Z,1000.94
2019-05-03T17:28:30.434Z,1000.90
2019-05-03T17:33:29.708Z,1000.93
2019-05-03T17:38:30.505Z,1000.87
2019-05-03T17:43:30.906Z,1000.86
2019-05-03T17:48:29.757Z,1000.83
2019-05-03T17:53:28.620Z,1000.80
2019-05-03T17:58:28.465Z,1000.80
2019-05-03T18:03:28.514Z,1000.85
2019-05-03T18:08:27.591Z,1000.77
2019-05-03T18:13:27.458Z,1000.87
2019-05-03T18:18:27.516Z,1000.84
2019-05-03T18:23:26.450Z,1000.79
2019-05-03T18:28:26.483Z,1000.81
2019-05-03T18:33:26.481Z,1000.78
2019-05-03T18:38:27.713Z,1000.70
2019-05-03T18:43:27.593Z,1000.72
2019-05-03T18:48:28.502Z,1000.75
2019-05-03T18:53:28.555Z,1000.74
2019-05-03T18:58:29.446Z,1000.82
2019-05-03T19:03:29.386Z,1000.84
2019-05-03T19:08:29.518Z,1000.84
2019-05-03T19:13:28.487Z,1000.86
2019-05-03T19:18:27.406Z,1000.86
2019-05-03T19:23:27.495Z,1000.83
2019-05-03T19:28:27.508Z,1000.83
2019-05-03T19:33:27.484Z,1000.78
2019-05-03T19:38:27.629Z,1000.83
2019-05-03T19:43:27.456Z,1000.77
2019-05-03T19:48:26.475Z,1000.79
2019-05-03T19:53:26.018Z,1000.79
2019-05-03T19:58:25.441Z,1000.84
2019-05-03T20:03:25.411Z,1000.68
2019-05-03T20:08:25.686Z,1000.75
2019-05-03T20:13:32.718Z,1000.67
2019-05-03T20:18:25.504Z,1000.64
2019-05-03T20:23:25.204Z,1000.59
2019-05-03T20:28:24.778Z,1000.67
2019-05-03T20:38:24.615Z,1000.64
2019-05-03T20:43:22.463Z,1000.61
2019-05-03T20:48:25.035Z,1000.58
2019-05-03T20:53:25.128Z,1000.60
2019-05-03T20:58:25.204Z,1000.59
2019-05-03T21:03:22.432Z,1000.43
2019-05-03T21:08:22.568Z,1000.56
2019-05-03T21:13:22.448Z,1000.53
2019-05-03T21:18:24.368Z,1000.42
2019-05-03T21:23:22.530Z,1000.33
2019-05-03T21:28:22.595Z,1000.30
2019-05-03T21:33:22.514Z,1000.30
2019-05-03T21:38:21.851Z,1000.27
2019-05-03T21:43:22.582Z,1000.27
2019-05-03T21:48:24.941Z,1000.29
2019-05-03T21:53:24.979Z,1000.48
2019-05-03T21:58:22.419Z,1000.40
2019-05-03T22:03:21.581Z,1000.37
2019-05-03T22:08:20.939Z,1000.25
2019-05-03T22:13:19.742Z,1000.19
2019-05-03T22:18:19.465Z,1000.22
2019-05-03T22:23:18.994Z,1000.25
2019-05-03T22:28:18.583Z,1000.13
2019-05-03T22:33:18.433Z,1000.26
2019-05-03T22:38:19.431Z,1000.18
2019-05-03T22:48:20.421Z,1000.04
2019-05-03T22:53:19.437Z,999.96
2019-05-03T22:58:18.814Z,999.96
2019-05-03T23:03:18.745Z,999.98
2019-05-03T23:08:18.511Z,999.92
2019-05-03T23:13:17.765Z,999.89
2019-05-03T23:18:16.946Z,999.74
2019-05-03T23:23:17.067Z,999.77
2019-05-03T23:28:16.426Z,999.66
2019-05-03T23:33:15.810Z,999.60
2019-05-03T23:38:15.494Z,999.58
2019-05-03T23:43:15.882Z,999.53
2019-05-03T23:48:15.570Z,999.52
2019-05-03T23:53:15.387Z,999.39
2019-05-03T23:58:14.583Z,999.40
